Time;durP1;ratioP1;P1;durP2;ratioP2;P2;SDS_P1;SDS_P2;PMS_P1;PMS_P2;Temp;Humidity;BMP_temperature;BMP_pressure;BME280_temperature;BME280_humidity;BME280_pressure;Samples;Min_cycle;Max_cycle;Signal;HPM_P1;HPM_P2
2023/08/07 00:02:16;;;;;;;13.40;7.32;;;14.10;99.90;;;;;;5046009;28;20032;-46
2023/08/07 00:04:42;;;;;;;11.50;3.45;;;14.00;99.90;;;;;;5033569;28;20037;-45
2023/08/07 00:07:07;;;;;;;1.48;0.73;;;14.00;99.90;;;;;;5034482;28;20040;-50
2023/08/07 00:09:33;;;;;;;3.88;1.13;;;14.00;99.90;;;;;;5016324;28;20024;-46
2023/08/07 00:11:58;;;;;;;3.13;0.85;;;14.00;99.90;;;;;;5034130;28;20432;-47
2023/08/07 00:14:24;;;;;;;5.10;1.10;;;14.00;99.90;;;;;;5033868;28;20048;-50
2023/08/07 00:16:49;;;;;;;6.05;1.48;;;14.00;99.90;;;;;;5034060;28;20117;-50
2023/08/07 00:19:15;;;;;;;3.13;1.33;;;14.00;99.90;;;;;;4999403;28;20071;-50
2023/08/07 00:21:41;;;;;;;2.90;1.20;;;13.90;99.90;;;;;;5015095;28;20048;-52
2023/08/07 00:24:07;;;;;;;6.78;2.38;;;14.00;99.90;;;;;;5032847;28;20021;-49
2023/08/07 00:26:32;;;;;;;4.50;0.80;;;14.00;99.90;;;;;;5014748;28;20037;-50
2023/08/07 00:28:58;;;;;;;7.60;1.15;;;14.00;99.90;;;;;;5031864;28;20500;-46
2023/08/07 00:31:25;;;;;;;2.40;1.08;;;14.00;99.90;;;;;;5031795;28;20046;-48
2023/08/07 00:33:53;;;;;;;2.47;0.98;;;14.00;99.90;;;;;;5031751;28;20547;-51
2023/08/07 00:36:19;;;;;;;4.43;1.02;;;14.00;99.90;;;;;;5032057;28;20017;-49
2023/08/07 00:38:45;;;;;;;7.75;1.20;;;14.00;99.90;;;;;;5014212;28;20122;-47
2023/08/07 00:41:10;;;;;;;3.75;1.83;;;14.00;99.90;;;;;;5031872;28;20037;-49
2023/08/07 00:43:36;;;;;;;4.57;1.20;;;14.00;99.90;;;;;;5031679;28;20033;-48
2023/08/07 00:46:02;;;;;;;2.83;0.93;;;14.00;99.90;;;;;;5031792;28;20409;-49
2023/08/07 00:48:28;;;;;;;3.85;1.08;;;14.00;99.90;;;;;;5031680;28;20033;-47
2023/08/07 00:50:54;;;;;;;7.43;1.95;;;14.00;99.90;;;;;;5031443;28;20456;-48
2023/08/07 00:53:19;;;;;;;3.83;1.20;;;13.90;99.90;;;;;;5031655;28;20069;-49
2023/08/07 00:55:46;;;;;;;3.88;1.45;;;13.90;99.90;;;;;;5031709;28;20053;-46
2023/08/07 00:58:11;;;;;;;4.97;1.30;;;13.90;99.90;;;;;;5031622;28;20029;-47
2023/08/07 01:00:38;;;;;;;9.30;1.55;;;13.90;99.90;;;;;;5031536;28;20026;-47
2023/08/07 01:03:06;;;;;;;5.10;1.60;;;13.90;99.90;;;;;;5031361;28;20025;-45
2023/08/07 01:05:32;;;;;;;2.50;1.35;;;13.80;99.90;;;;;;5031201;28;20068;-50
2023/08/07 01:07:57;;;;;;;5.13;1.52;;;13.90;99.90;;;;;;5031545;28;20120;-47
2023/08/07 01:10:35;;;;;;;8.40;1.23;;;13.90;99.90;;;;;;5031392;28;20026;-46
2023/08/07 01:13:09;;;;;;;3.13;1.65;;;13.90;99.90;;;;;;5031253;28;20026;-46
2023/08/07 01:15:37;;;;;;;6.97;1.90;;;13.90;99.90;;;;;;5031525;28;20074;-45
2023/08/07 01:18:04;;;;;;;4.82;1.88;;;13.90;99.90;;;;;;5031487;28;20034;-47
2023/08/07 01:20:30;;;;;;;5.82;1.52;;;13.90;99.90;;;;;;5013548;28;20485;-46
2023/08/07 01:22:56;;;;;;;4.60;1.70;;;13.90;99.90;;;;;;5031542;28;20045;-47
2023/08/07 01:25:22;;;;;;;5.65;1.63;;;13.90;99.90;;;;;;5031343;28;20036;-46
2023/08/07 01:28:02;;;;;;;7.13;1.58;;;13.90;99.90;;;;;;5031418;28;20088;-47
2023/08/07 01:30:38;;;;;;;6.63;1.55;;;13.90;99.90;;;;;;5013463;28;20501;-50
2023/08/07 01:33:27;;;;;;;9.60;1.98;;;13.90;99.90;;;;;;5031198;28;20041;-48
2023/08/07 01:35:56;;;;;;;6.03;2.25;;;13.90;99.90;;;;;;5031155;28;20024;-47
2023/08/07 01:38:25;;;;;;;6.72;1.92;;;13.90;99.90;;;;;;5031126;28;20370;-45
2023/08/07 01:40:52;;;;;;;4.65;1.75;;;13.90;99.90;;;;;;5031041;28;20374;-46
2023/08/07 01:43:19;;;;;;;8.95;2.13;;;13.90;99.90;;;;;;5031328;28;20025;-46
2023/08/07 01:45:44;;;;;;;4.47;1.90;;;13.80;99.90;;;;;;5031141;28;20026;-47
2023/08/07 01:48:11;;;;;;;5.53;1.85;;;14.10;99.90;;;;;;5031183;28;20366;-45
2023/08/07 01:50:39;;;;;;;7.65;1.80;;;13.80;99.90;;;;;;5030962;28;20036;-50
2023/08/07 01:53:05;;;;;;;4.38;1.90;;;13.90;99.90;;;;;;5030842;28;20040;-46
2023/08/07 01:55:31;;;;;;;7.55;2.58;;;13.90;99.90;;;;;;5030891;28;20052;-47
2023/08/07 01:57:56;;;;;;;7.05;1.73;;;13.80;99.90;;;;;;5030942;28;20021;-46
2023/08/07 02:00:22;;;;;;;7.43;2.65;;;13.80;99.90;;;;;;5030597;28;20392;-48
2023/08/07 02:02:47;;;;;;;5.90;2.17;;;13.80;99.90;;;;;;5030903;28;20076;-46
2023/08/07 02:05:14;;;;;;;6.05;2.05;;;13.80;99.90;;;;;;5031076;28;20108;-46
2023/08/07 02:07:40;;;;;;;7.68;2.10;;;13.80;99.90;;;;;;5031045;28;20101;-47
2023/08/07 02:10:06;;;;;;;8.40;2.28;;;13.80;99.90;;;;;;5030687;28;20029;-48
2023/08/07 02:12:34;;;;;;;14.43;2.67;;;13.80;99.90;;;;;;5030864;28;20485;-48
2023/08/07 02:15:00;;;;;;;6.25;2.15;;;13.80;99.90;;;;;;5031355;28;20083;-48
2023/08/07 02:17:28;;;;;;;8.38;2.20;;;13.80;99.90;;;;;;5034507;28;20026;-47
2023/08/07 02:19:53;;;;;;;4.38;2.22;;;13.80;99.90;;;;;;5034181;28;20021;-45
2023/08/07 02:22:19;;;;;;;9.73;2.53;;;13.80;99.90;;;;;;5016655;28;20078;-46
2023/08/07 02:24:44;;;;;;;8.18;2.25;;;13.90;99.90;;;;;;5034711;28;20083;-50
2023/08/07 02:27:10;;;;;;;8.40;2.42;;;13.90;99.90;;;;;;5016545;28;20575;-47
2023/08/07 02:29:36;;;;;;;7.32;2.20;;;13.80;99.90;;;;;;5033841;28;20481;-49
2023/08/07 02:32:02;;;;;;;12.88;3.25;;;13.90;99.90;;;;;;5034098;28;20068;-48
2023/08/07 02:34:31;;;;;;;11.90;2.63;;;13.90;99.90;;;;;;5033982;28;20018;-48
2023/08/07 02:36:57;;;;;;;11.98;2.47;;;13.90;99.90;;;;;;5034128;28;20052;-47
2023/08/07 02:39:23;;;;;;;10.85;2.50;;;13.90;99.90;;;;;;5033792;28;20113;-46
2023/08/07 02:41:48;;;;;;;12.80;2.13;;;14.00;99.90;;;;;;5033908;28;20448;-50
2023/08/07 02:44:14;;;;;;;10.50;2.13;;;13.90;99.90;;;;;;5034117;28;20396;-48
2023/08/07 02:46:39;;;;;;;4.78;1.95;;;13.90;99.90;;;;;;5034092;28;20483;-46
2023/08/07 02:49:05;;;;;;;12.00;2.80;;;13.90;99.90;;;;;;5033709;28;20030;-46
2023/08/07 02:51:32;;;;;;;6.50;2.92;;;13.90;99.90;;;;;;5033818;28;20028;-48
2023/08/07 02:53:57;;;;;;;7.82;3.63;;;13.90;99.90;;;;;;5016035;28;20124;-46
2023/08/07 02:56:23;;;;;;;11.45;2.60;;;13.90;99.90;;;;;;5033818;28;20695;-46
2023/08/07 02:58:48;;;;;;;7.38;2.30;;;13.90;99.90;;;;;;5033438;28;20060;-46
2023/08/07 03:01:14;;;;;;;3.83;1.98;;;13.90;99.90;;;;;;5033563;28;20034;-46
2023/08/07 03:03:39;;;;;;;8.18;2.35;;;13.90;99.90;;;;;;5033585;28;20040;-46
2023/08/07 03:06:05;;;;;;;9.35;2.42;;;13.90;99.90;;;;;;5033700;28;20021;-47
2023/08/07 03:08:30;;;;;;;5.57;2.58;;;13.90;99.90;;;;;;5033444;28;20029;-48
2023/08/07 03:10:57;;;;;;;8.48;2.40;;;13.90;99.90;;;;;;5033348;28;20465;-48
2023/08/07 03:13:24;;;;;;;6.10;2.45;;;13.90;99.90;;;;;;5033372;28;20083;-49
2023/08/07 03:15:50;;;;;;;5.47;2.53;;;13.90;99.90;;;;;;5015554;28;20021;-46
2023/08/07 03:18:18;;;;;;;7.22;3.05;;;13.90;99.90;;;;;;5033335;28;20022;-45
2023/08/07 03:20:43;;;;;;;6.18;2.53;;;13.90;99.90;;;;;;5015388;28;20025;-47
2023/08/07 03:23:10;;;;;;;4.93;1.90;;;13.90;99.90;;;;;;5033146;28;20513;-46
2023/08/07 03:25:35;;;;;;;7.53;2.40;;;13.90;99.90;;;;;;5033745;28;20025;-50
2023/08/07 03:28:01;;;;;;;7.55;2.95;;;13.90;99.90;;;;;;5032263;28;20104;-50
2023/08/07 03:30:26;;;;;;;4.47;1.98;;;13.90;99.90;;;;;;5032878;28;20116;-48
2023/08/07 03:32:52;;;;;;;17.35;2.20;;;13.80;99.90;;;;;;5033089;28;20083;-46
2023/08/07 03:35:18;;;;;;;6.53;2.63;;;13.90;99.90;;;;;;5032758;28;20490;-46
2023/08/07 03:37:43;;;;;;;6.43;2.17;;;13.90;99.90;;;;;;5032991;28;20108;-49
2023/08/07 03:40:09;;;;;;;8.25;2.72;;;13.90;99.90;;;;;;5032755;28;20052;-48
2023/08/07 03:42:34;;;;;;;7.85;2.95;;;13.90;99.90;;;;;;5032676;28;20039;-46
2023/08/07 03:45:00;;;;;;;6.60;1.65;;;13.90;99.90;;;;;;5015012;28;20032;-46
2023/08/07 03:47:25;;;;;;;5.97;2.50;;;14.00;99.90;;;;;;5032761;28;20060;-48
2023/08/07 03:49:51;;;;;;;9.00;2.88;;;14.00;99.90;;;;;;5032380;28;20116;-49
2023/08/07 03:52:17;;;;;;;4.68;2.05;;;13.90;99.90;;;;;;5032443;28;20037;-47
2023/08/07 03:54:43;;;;;;;5.93;2.10;;;13.90;99.90;;;;;;5032711;28;20022;-49
2023/08/07 03:57:10;;;;;;;4.65;2.20;;;14.00;99.90;;;;;;5032621;28;20070;-48
2023/08/07 03:59:36;;;;;;;8.18;2.05;;;14.00;99.90;;;;;;5032438;28;20025;-46
2023/08/07 04:02:01;;;;;;;10.25;2.03;;;14.00;99.90;;;;;;5032497;28;20070;-47
2023/08/07 04:04:27;;;;;;;7.63;2.05;;;14.00;99.90;;;;;;5032425;28;20473;-46
2023/08/07 04:06:52;;;;;;;7.88;2.00;;;14.10;99.90;;;;;;5032549;28;20048;-48
2023/08/07 04:09:18;;;;;;;7.70;3.25;;;14.00;99.90;;;;;;5014369;28;20033;-45
2023/08/07 04:11:43;;;;;;;6.07;2.30;;;14.00;99.90;;;;;;5032263;28;20044;-46
2023/08/07 04:14:09;;;;;;;7.88;2.17;;;14.00;99.90;;;;;;5032204;28;20473;-47
2023/08/07 04:16:34;;;;;;;6.25;2.25;;;14.00;99.90;;;;;;5032126;28;20025;-46
2023/08/07 04:19:00;;;;;;;7.18;2.00;;;14.10;99.90;;;;;;5031874;28;20029;-47
2023/08/07 04:21:25;;;;;;;6.35;1.92;;;14.00;99.90;;;;;;5031965;28;20028;-43
2023/08/07 04:23:51;;;;;;;7.13;2.92;;;14.00;99.90;;;;;;5032117;28;20121;-49
2023/08/07 04:26:16;;;;;;;2.95;1.92;;;13.90;99.90;;;;;;5031932;28;20079;-46
2023/08/07 04:28:42;;;;;;;3.85;1.98;;;13.90;99.90;;;;;;5031949;28;20456;-46
2023/08/07 04:31:08;;;;;;;7.50;2.15;;;14.00;99.90;;;;;;5031786;28;20451;-46
2023/08/07 04:33:33;;;;;;;7.40;2.08;;;14.00;99.90;;;;;;5031524;28;20049;-51
2023/08/07 04:35:59;;;;;;;3.22;1.85;;;14.00;99.90;;;;;;5031944;28;20595;-46
2023/08/07 04:38:25;;;;;;;7.38;1.77;;;14.00;99.90;;;;;;5031916;28;20103;-49
2023/08/07 04:40:51;;;;;;;5.22;1.75;;;14.00;99.90;;;;;;5031772;28;20029;-47
2023/08/07 04:43:19;;;;;;;10.23;2.38;;;14.00;99.90;;;;;;5031784;28;20172;-47
2023/08/07 04:45:44;;;;;;;3.78;1.70;;;14.00;99.90;;;;;;5031606;28;20032;-46
2023/08/07 04:48:11;;;;;;;4.85;1.98;;;14.10;99.90;;;;;;5031710;28;20105;-46
2023/08/07 04:50:37;;;;;;;6.07;1.83;;;14.10;99.90;;;;;;5031349;28;20037;-46
2023/08/07 04:53:04;;;;;;;6.68;2.45;;;14.00;99.90;;;;;;5031593;28;20033;-45
2023/08/07 04:55:30;;;;;;;9.35;2.08;;;14.00;99.90;;;;;;5031634;28;20053;-48
2023/08/07 04:57:56;;;;;;;6.13;1.90;;;14.00;99.90;;;;;;5013921;28;20021;-45
2023/08/07 05:00:21;;;;;;;5.03;2.13;;;14.00;99.90;;;;;;5031305;28;20028;-49
2023/08/07 05:02:50;;;;;;;6.93;2.53;;;14.00;99.90;;;;;;5031521;28;20104;-47
2023/08/07 05:05:16;;;;;;;7.00;2.00;;;14.10;99.90;;;;;;5031458;28;20028;-50
2023/08/07 05:07:42;;;;;;;5.10;1.85;;;14.10;99.90;;;;;;5031596;28;20025;-47
2023/08/07 05:10:09;;;;;;;6.60;1.83;;;14.10;99.90;;;;;;5031126;28;20033;-48
2023/08/07 05:12:35;;;;;;;6.68;2.35;;;14.00;99.90;;;;;;5031348;28;20440;-48
2023/08/07 05:15:00;;;;;;;5.45;1.88;;;14.10;99.90;;;;;;5031339;28;20026;-49
2023/08/07 05:17:26;;;;;;;10.05;2.17;;;14.10;99.90;;;;;;5031412;28;20412;-48
2023/08/07 05:19:51;;;;;;;5.53;2.20;;;14.10;99.90;;;;;;5031355;28;20053;-47
2023/08/07 05:22:17;;;;;;;5.53;1.67;;;14.10;99.90;;;;;;5031589;28;20029;-49
2023/08/07 05:24:44;;;;;;;7.43;2.17;;;14.10;99.90;;;;;;5031469;28;20029;-51
2023/08/07 05:27:10;;;;;;;5.38;1.75;;;14.10;99.90;;;;;;5031361;28;20040;-45
2023/08/07 05:29:43;;;;;;;9.07;1.80;;;14.10;99.90;;;;;;5030941;28;20033;-46
2023/08/07 05:32:12;;;;;;;8.07;2.55;;;14.10;99.90;;;;;;5013512;28;20025;-45
2023/08/07 05:34:37;;;;;;;9.48;2.45;;;14.00;99.90;;;;;;5030916;28;20044;-49
2023/08/07 05:37:04;;;;;;;5.68;1.95;;;14.10;99.90;;;;;;5031096;28;20022;-46
2023/08/07 05:39:29;;;;;;;8.07;2.55;;;14.10;99.90;;;;;;5030758;28;20033;-48
2023/08/07 05:41:57;;;;;;;6.05;2.00;;;14.10;99.90;;;;;;5031140;28;20530;-46
2023/08/07 05:44:26;;;;;;;7.07;2.65;;;14.20;99.90;;;;;;5031141;28;20105;-49
2023/08/07 05:46:51;;;;;;;10.77;2.30;;;14.10;99.90;;;;;;5031383;28;20036;-49
2023/08/07 05:49:17;;;;;;;7.32;2.40;;;14.10;99.90;;;;;;5030832;28;20116;-46
2023/08/07 05:51:43;;;;;;;9.15;2.47;;;14.10;99.90;;;;;;5034406;28;20044;-46
2023/08/07 05:54:08;;;;;;;9.35;2.38;;;14.10;99.90;;;;;;5035320;28;20052;-49
2023/08/07 05:56:34;;;;;;;5.30;2.25;;;14.10;99.90;;;;;;5034795;28;20109;-47
2023/08/07 05:59:00;;;;;;;5.00;2.28;;;14.10;99.90;;;;;;5034625;28;20164;-46
2023/08/07 06:01:31;;;;;;;5.57;2.10;;;14.10;99.90;;;;;;5034648;28;20033;-48
2023/08/07 06:03:58;;;;;;;7.45;2.25;;;14.20;99.90;;;;;;5034501;28;20033;-47
2023/08/07 06:06:25;;;;;;;2.92;2.45;;;14.20;99.90;;;;;;5034990;28;20037;-47
2023/08/07 06:08:50;;;;;;;4.55;2.05;;;14.30;99.90;;;;;;5034411;28;20489;-46
2023/08/07 06:11:17;;;;;;;4.05;2.00;;;14.30;99.90;;;;;;5034881;28;20034;-46
2023/08/07 06:13:42;;;;;;;2.75;1.77;;;14.30;99.90;;;;;;5016753;28;20022;-49
2023/08/07 06:16:08;;;;;;;6.03;1.98;;;14.30;99.90;;;;;;5034458;28;20017;-47
2023/08/07 06:18:34;;;;;;;4.00;1.83;;;14.30;99.90;;;;;;5034306;28;20511;-49
2023/08/07 06:20:59;;;;;;;8.75;2.33;;;14.20;99.90;;;;;;5034338;28;20021;-46
2023/08/07 06:23:25;;;;;;;4.50;1.83;;;14.20;99.90;;;;;;5034125;28;20148;-49
2023/08/07 06:25:50;;;;;;;6.13;2.08;;;14.20;99.90;;;;;;5034391;28;20028;-49
2023/08/07 06:28:16;;;;;;;7.13;2.53;;;14.10;99.90;;;;;;5034351;28;20044;-48
2023/08/07 06:30:41;;;;;;;6.53;2.60;;;14.10;99.90;;;;;;5033960;28;20542;-48
2023/08/07 06:33:07;;;;;;;6.18;2.22;;;14.10;99.90;;;;;;5034015;28;20018;-47
2023/08/07 06:35:38;;;;;;;3.13;2.10;;;14.10;99.90;;;;;;5033797;28;20022;-47
2023/08/07 06:38:04;;;;;;;3.25;2.25;;;14.00;99.90;;;;;;5033971;28;20485;-48
2023/08/07 06:40:29;;;;;;;3.90;1.90;;;14.00;99.90;;;;;;5033823;28;20031;-50
2023/08/07 06:42:55;;;;;;;7.40;2.60;;;14.00;99.90;;;;;;5034001;28;20291;-49
2023/08/07 06:45:20;;;;;;;6.50;2.10;;;14.00;99.90;;;;;;5033967;28;20030;-46
2023/08/07 06:47:46;;;;;;;4.65;2.50;;;13.90;99.90;;;;;;5034292;28;20071;-46
2023/08/07 06:50:13;;;;;;;5.82;2.20;;;13.90;99.90;;;;;;5033567;28;20021;-46
2023/08/07 06:52:39;;;;;;;3.63;2.03;;;14.00;99.90;;;;;;5036058;28;20097;-52
2023/08/07 06:55:05;;;;;;;7.20;1.95;;;13.90;99.90;;;;;;5045296;28;20052;-53
2023/08/07 06:57:30;;;;;;;3.10;2.10;;;13.90;99.90;;;;;;5040219;28;20109;-53
2023/08/07 06:59:56;;;;;;;4.78;1.75;;;13.90;99.90;;;;;;5039864;28;20072;-52
2023/08/07 07:02:21;;;;;;;2.45;1.60;;;14.00;99.90;;;;;;5038789;28;20406;-52
2023/08/07 07:04:47;;;;;;;4.65;2.05;;;14.00;99.90;;;;;;5041344;28;20037;-55
2023/08/07 07:07:12;;;;;;;3.58;1.90;;;14.00;99.90;;;;;;5016651;28;20524;-51
2023/08/07 07:09:38;;;;;;;3.80;2.20;;;14.10;99.90;;;;;;5033253;28;20026;-49
2023/08/07 07:12:04;;;;;;;2.85;2.03;;;14.10;99.90;;;;;;5033494;28;20197;-46
2023/08/07 07:14:29;;;;;;;4.95;1.92;;;14.20;99.90;;;;;;5022496;28;20037;-47
2023/08/07 07:16:55;;;;;;;5.97;2.47;;;14.30;99.90;;;;;;5024568;28;20037;-54
2023/08/07 07:19:20;;;;;;;6.20;1.95;;;14.30;99.90;;;;;;5033255;28;20377;-49
2023/08/07 07:21:46;;;;;;;4.25;1.65;;;14.30;99.90;;;;;;5032999;28;20488;-50
2023/08/07 07:24:11;;;;;;;8.77;3.85;;;14.30;99.90;;;;;;5033240;28;20034;-48
2023/08/07 07:26:37;;;;;;;6.47;2.03;;;14.40;99.90;;;;;;5033181;28;20021;-47
2023/08/07 07:29:02;;;;;;;7.70;2.17;;;14.40;99.90;;;;;;5032920;28;20120;-46
2023/08/07 07:31:28;;;;;;;4.25;1.90;;;14.40;99.90;;;;;;5033017;28;20096;-46
2023/08/07 07:33:53;;;;;;;2.92;2.20;;;14.40;99.90;;;;;;5032868;28;20034;-50
2023/08/07 07:36:19;;;;;;;12.35;3.13;;;14.40;99.90;;;;;;5032783;28;20099;-47
2023/08/07 07:38:46;;;;;;;4.45;1.50;;;14.40;99.90;;;;;;5033724;28;20025;-46
2023/08/07 07:41:12;;;;;;;5.95;1.85;;;14.50;99.90;;;;;;5033069;28;20453;-53
2023/08/07 07:43:38;;;;;;;2.63;1.77;;;14.50;99.90;;;;;;5033316;28;20084;-46
2023/08/07 07:46:03;;;;;;;9.10;2.25;;;14.50;99.90;;;;;;5032963;28;20028;-46
2023/08/07 07:48:29;;;;;;;9.48;1.70;;;14.50;99.90;;;;;;5015107;28;20032;-48
2023/08/07 07:50:59;;;;;;;3.63;1.70;;;14.50;99.90;;;;;;5031699;28;20034;-48
2023/08/07 07:53:24;;;;;;;3.85;1.75;;;14.60;99.90;;;;;;5032190;28;20028;-49
2023/08/07 07:55:50;;;;;;;8.10;2.20;;;14.60;99.90;;;;;;5032215;28;20025;-47
2023/08/07 07:58:15;;;;;;;6.50;2.30;;;14.60;99.90;;;;;;5031692;28;20515;-48
2023/08/07 08:00:42;;;;;;;8.20;1.95;;;14.60;99.90;;;;;;5032671;28;20503;-51
2023/08/07 08:03:08;;;;;;;3.55;2.08;;;14.60;99.90;;;;;;5039129;28;20081;-55
2023/08/07 08:05:34;;;;;;;5.00;2.03;;;14.60;99.90;;;;;;5037317;28;20384;-48
2023/08/07 08:08:01;;;;;;;4.70;2.53;;;14.70;99.90;;;;;;5032423;28;20065;-49
2023/08/07 08:10:27;;;;;;;6.13;2.22;;;14.70;99.90;;;;;;5031815;28;20037;-48
2023/08/07 08:12:54;;;;;;;6.85;2.53;;;14.70;99.90;;;;;;5031451;28;20559;-46
2023/08/07 08:15:19;;;;;;;4.78;1.83;;;14.70;99.90;;;;;;5032161;28;20092;-49
2023/08/07 08:17:45;;;;;;;3.75;1.70;;;14.80;99.90;;;;;;5032023;28;20431;-46
2023/08/07 08:20:10;;;;;;;9.20;3.30;;;14.80;99.90;;;;;;5031830;28;20026;-46
2023/08/07 08:22:36;;;;;;;8.00;1.90;;;14.80;99.90;;;;;;5031829;28;20056;-50
2023/08/07 08:25:04;;;;;;;6.13;1.95;;;14.80;99.90;;;;;;5031918;28;20374;-51
2023/08/07 08:27:30;;;;;;;7.43;3.22;;;14.80;99.90;;;;;;5030651;28;20028;-51
2023/08/07 08:29:55;;;;;;;9.57;2.00;;;14.80;99.90;;;;;;5031642;28;20049;-49
2023/08/07 08:32:21;;;;;;;6.22;2.15;;;14.90;99.90;;;;;;5019681;28;20028;-48
2023/08/07 08:34:49;;;;;;;2.80;1.75;;;14.90;99.90;;;;;;5038826;28;20034;-50
2023/08/07 08:37:14;;;;;;;6.72;2.60;;;15.00;99.90;;;;;;5039449;28;20024;-51
2023/08/07 08:39:40;;;;;;;3.45;2.15;;;14.90;99.90;;;;;;5032240;28;20025;-50
2023/08/07 08:42:06;;;;;;;8.48;2.92;;;15.00;99.90;;;;;;5031462;28;20041;-47
2023/08/07 08:44:36;;;;;;;6.38;2.30;;;14.90;99.90;;;;;;5031408;28;20112;-46
2023/08/07 08:47:02;;;;;;;8.85;2.15;;;15.00;99.90;;;;;;5031145;28;20057;-46
2023/08/07 08:49:37;;;;;;;4.15;1.83;;;15.00;99.90;;;;;;5031275;28;20479;-46
2023/08/07 08:52:04;;;;;;;6.18;2.33;;;14.90;99.90;;;;;;5013320;28;20061;-49
2023/08/07 08:54:30;;;;;;;6.15;1.73;;;14.90;99.90;;;;;;5031276;28;20489;-48
2023/08/07 08:56:59;;;;;;;5.53;1.90;;;15.00;99.90;;;;;;5030442;28;20032;-49
2023/08/07 08:59:25;;;;;;;7.00;3.28;;;14.90;99.90;;;;;;5031080;28;20022;-52
2023/08/07 09:01:52;;;;;;;6.68;3.35;;;14.90;99.90;;;;;;5031396;28;20160;-48
2023/08/07 09:04:18;;;;;;;5.80;2.10;;;14.90;99.90;;;;;;5031518;28;20088;-49
2023/08/07 09:06:44;;;;;;;4.68;1.70;;;15.00;99.90;;;;;;5013823;28;20021;-51
2023/08/07 09:09:12;;;;;;;4.35;2.00;;;15.10;99.90;;;;;;5012856;28;20033;-47
2023/08/07 09:11:39;;;;;;;4.03;1.92;;;15.10;99.90;;;;;;5012926;28;20018;-50
2023/08/07 09:14:04;;;;;;;5.57;2.47;;;15.20;99.90;;;;;;5017446;28;20026;-53
2023/08/07 09:16:30;;;;;;;6.18;2.30;;;15.30;99.90;;;;;;5013080;28;20404;-50
2023/08/07 09:18:56;;;;;;;2.42;1.58;;;15.40;99.90;;;;;;5030625;28;20033;-48
2023/08/07 09:21:21;;;;;;;4.20;2.20;;;15.40;99.90;;;;;;5031459;28;20085;-50
2023/08/07 09:23:47;;;;;;;5.80;1.70;;;15.40;99.90;;;;;;5031669;28;20385;-46
2023/08/07 09:26:12;;;;;;;6.10;1.88;;;15.40;99.90;;;;;;5034262;28;20017;-48
2023/08/07 09:28:38;;;;;;;2.08;1.70;;;15.40;99.90;;;;;;5035451;28;20030;-47
2023/08/07 09:31:08;;;;;;;7.32;2.00;;;15.30;99.90;;;;;;5034631;28;20037;-47
2023/08/07 09:33:33;;;;;;;8.88;2.00;;;15.30;99.90;;;;;;5032994;28;20025;-51
2023/08/07 09:36:01;;;;;;;4.10;2.03;;;15.20;99.90;;;;;;5033125;28;20404;-50
2023/08/07 09:38:33;;;;;;;3.55;2.13;;;15.20;99.90;;;;;;5035172;28;20025;-53
2023/08/07 09:41:00;;;;;;;4.53;2.20;;;15.20;99.90;;;;;;5033520;28;20417;-51
2023/08/07 09:43:25;;;;;;;5.63;2.00;;;15.10;99.90;;;;;;5035041;28;20032;-48
2023/08/07 09:45:51;;;;;;;7.85;2.15;;;15.00;99.90;;;;;;5035126;28;20026;-47
2023/08/07 09:48:24;;;;;;;5.70;1.80;;;14.90;99.90;;;;;;5035023;28;20033;-52
2023/08/07 09:50:50;;;;;;;6.95;2.50;;;14.80;99.90;;;;;;5034817;28;20030;-48
2023/08/07 09:53:16;;;;;;;6.63;3.15;;;14.80;99.90;;;;;;5034916;28;20580;-50
2023/08/07 09:55:41;;;;;;;7.07;2.00;;;14.80;99.90;;;;;;5034732;28;20021;-52
2023/08/07 09:58:12;;;;;;;3.28;1.95;;;14.80;99.90;;;;;;5034547;28;20025;-51
2023/08/07 10:00:37;;;;;;;6.70;2.30;;;14.70;99.90;;;;;;5034481;28;20403;-48
2023/08/07 10:03:04;;;;;;;5.07;2.25;;;14.70;99.90;;;;;;5034594;28;20025;-50
2023/08/07 10:05:30;;;;;;;5.82;2.25;;;14.70;99.90;;;;;;5034521;28;20029;-48
2023/08/07 10:07:57;;;;;;;5.15;2.20;;;14.70;99.90;;;;;;5034636;28;20038;-48
2023/08/07 10:10:25;;;;;;;5.95;2.03;;;14.70;99.90;;;;;;5034440;28;20101;-52
2023/08/07 10:12:51;;;;;;;6.55;2.17;;;14.70;99.90;;;;;;5027541;28;20496;-50
2023/08/07 10:15:18;;;;;;;7.82;3.00;;;14.80;99.90;;;;;;5026440;28;20073;-55
2023/08/07 10:17:43;;;;;;;4.40;1.88;;;14.90;99.90;;;;;;5043146;28;20743;-49
2023/08/07 10:20:09;;;;;;;2.50;1.80;;;14.90;99.90;;;;;;5040599;28;20032;-50
2023/08/07 10:22:38;;;;;;;4.03;1.90;;;14.90;99.90;;;;;;5027224;28;20037;-45
2023/08/07 10:25:06;;;;;;;6.03;2.50;;;15.00;99.90;;;;;;5026115;28;20044;-51
2023/08/07 10:27:34;;;;;;;7.18;2.00;;;15.00;99.90;;;;;;5031806;28;20095;-54
2023/08/07 10:30:06;;;;;;;3.05;2.03;;;15.10;99.90;;;;;;5031758;28;20021;-58
2023/08/07 10:32:35;;;;;;;4.25;2.15;;;15.20;99.90;;;;;;5032668;28;20032;-57
2023/08/07 10:35:05;;;;;;;9.10;2.92;;;15.30;99.90;;;;;;5012474;28;20026;-49
2023/08/07 10:37:44;;;;;;;10.88;2.33;;;15.30;99.90;;;;;;5032028;28;20018;-56
2023/08/07 10:40:14;;;;;;;2.92;1.60;;;15.40;99.90;;;;;;5032011;28;20034;-54
2023/08/07 10:42:58;;;;;;;2.50;1.77;;;15.40;99.90;;;;;;5028201;28;20026;-54
2023/08/07 10:45:24;;;;;;;2.85;1.70;;;15.50;99.90;;;;;;5030907;28;20030;-51
2023/08/07 10:48:10;;;;;;;5.45;1.90;;;15.60;99.90;;;;;;5014431;28;20079;-56
2023/08/07 10:50:54;;;;;;;2.92;1.80;;;15.60;99.90;;;;;;5013963;28;20032;-58
2023/08/07 10:53:34;;;;;;;3.17;1.55;;;15.80;99.90;;;;;;5027303;28;20389;-50
2023/08/07 10:56:04;;;;;;;7.07;2.03;;;15.90;99.90;;;;;;5033026;28;20057;-50
2023/08/07 10:58:35;;;;;;;2.92;1.90;;;16.00;99.90;;;;;;5024391;28;20751;-48
2023/08/07 11:01:29;;;;;;;4.30;1.70;;;16.10;99.90;;;;;;5033308;28;20029;-53
2023/08/07 11:03:59;;;;;;;8.68;1.85;;;16.10;99.90;;;;;;5033398;28;20034;-51
2023/08/07 11:06:32;;;;;;;8.52;2.00;;;16.10;99.90;;;;;;5033796;28;20100;-51
2023/08/07 11:08:59;;;;;;;2.30;1.48;;;16.20;99.90;;;;;;5033819;28;20033;-59
2023/08/07 11:11:26;;;;;;;6.55;2.13;;;16.10;99.90;;;;;;5034213;28;20053;-57
2023/08/07 11:13:51;;;;;;;2.47;2.08;;;16.20;99.90;;;;;;5033668;28;20452;-55
2023/08/07 11:16:17;;;;;;;23.98;14.55;;;16.10;99.90;;;;;;5016215;28;20021;-53
2023/08/07 11:18:43;;;;;;;3.35;2.97;;;16.10;99.90;;;;;;5033284;28;20033;-56
2023/08/07 11:21:13;;;;;;;2.22;1.55;;;16.20;99.90;;;;;;5032641;28;20401;-55
2023/08/07 11:23:40;;;;;;;5.00;1.95;;;16.20;99.90;;;;;;5012119;28;20021;-54
2023/08/07 11:26:06;;;;;;;3.47;1.67;;;16.20;99.90;;;;;;5015476;28;20045;-54
2023/08/07 11:28:32;;;;;;;3.65;1.80;;;16.30;99.90;;;;;;5015140;28;20026;-53
2023/08/07 11:30:58;;;;;;;3.13;1.80;;;16.50;99.90;;;;;;5033426;28;20443;-55
2023/08/07 11:33:27;;;;;;;1.95;1.15;;;16.60;99.90;;;;;;5015362;28;20025;-54
2023/08/07 11:35:54;;;;;;;2.40;1.48;;;16.70;99.90;;;;;;5015452;28;20029;-53
2023/08/07 11:38:43;;;;;;;2.67;1.40;;;16.80;99.90;;;;;;5015756;28;20021;-52
2023/08/07 11:41:10;;;;;;;3.65;1.20;;;16.90;99.90;;;;;;5033214;28;20544;-52
2023/08/07 11:43:36;;;;;;;4.10;1.25;;;17.00;99.90;;;;;;5034648;28;20045;-58
2023/08/07 11:46:07;;;;;;;6.75;1.67;;;16.90;99.90;;;;;;5015789;28;20029;-57
2023/08/07 11:48:37;;;;;;;4.35;1.27;;;17.00;99.90;;;;;;5031722;28;20025;-56
2023/08/07 11:51:04;;;;;;;6.25;1.83;;;17.10;99.90;;;;;;5014344;28;20511;-55
2023/08/07 11:53:32;;;;;;;2.90;1.50;;;17.10;99.90;;;;;;5053056;22;20053;-53
2023/08/07 11:56:01;;;;;;;3.03;1.35;;;17.20;99.90;;;;;;5003329;28;20040;-51
2023/08/07 11:58:34;;;;;;;3.53;1.60;;;17.10;99.90;;;;;;5026276;28;20517;-57
2023/08/07 12:01:09;;;;;;;3.95;1.75;;;17.00;99.90;;;;;;5010837;28;20534;-55
2023/08/07 12:03:38;;;;;;;6.60;2.13;;;17.00;99.90;;;;;;5013515;28;20029;-53
2023/08/07 12:06:06;;;;;;;3.20;1.90;;;16.90;99.90;;;;;;5010703;28;20037;-52
2023/08/07 12:08:37;;;;;;;5.80;1.85;;;16.90;99.90;;;;;;5029154;28;20100;-49
2023/08/07 12:11:04;;;;;;;4.53;1.70;;;16.90;99.90;;;;;;5030610;28;20056;-48
2023/08/07 12:13:31;;;;;;;3.67;1.67;;;16.80;99.90;;;;;;5030595;28;20025;-48
2023/08/07 12:15:58;;;;;;;3.38;1.50;;;16.80;99.90;;;;;;5030130;28;20488;-47
2023/08/07 12:18:25;;;;;;;5.93;1.70;;;16.80;99.90;;;;;;5029102;28;20386;-46
2023/08/07 12:20:52;;;;;;;3.38;1.52;;;16.80;99.90;;;;;;5012088;28;20034;-50
2023/08/07 12:23:20;;;;;;;3.47;1.63;;;16.70;99.90;;;;;;5029667;28;20029;-46
2023/08/07 12:25:46;;;;;;;6.18;2.17;;;16.80;99.90;;;;;;5029618;28;20025;-48
2023/08/07 12:28:12;;;;;;;4.20;1.90;;;16.80;99.90;;;;;;5028337;28;20104;-48
2023/08/07 12:30:38;;;;;;;12.13;2.65;;;16.90;99.90;;;;;;5017366;28;20061;-48
2023/08/07 12:33:04;;;;;;;6.85;1.83;;;17.00;99.90;;;;;;5031756;28;20029;-53
2023/08/07 12:35:34;;;;;;;1.77;1.40;;;17.20;99.90;;;;;;5021054;28;20056;-59
2023/08/07 12:38:01;;;;;;;5.38;1.80;;;17.30;99.90;;;;;;5027677;28;20029;-48
2023/08/07 12:40:27;;;;;;;6.25;2.17;;;17.50;99.90;;;;;;5030154;28;20481;-59
2023/08/07 12:42:52;;;;;;;6.10;1.55;;;17.60;99.90;;;;;;5009608;28;20044;-55
2023/08/07 12:45:19;;;;;;;3.88;1.73;;;17.70;99.90;;;;;;5028526;28;20025;-58